メインページ
METAR-TAF:

METAR-TAF

空港 :

イーラーム, イラン

緯度: 33-35-09N, 経度: 046-24-20E, 海抜: 1334m

現時点の気象観測

当レポートは19分前の09:00(UTC)に作成
西の風 8kt
気温 32°C
湿度 20%
気圧 1009 hPa
視程10km以上
1,500メートル以下は雲なし、積乱雲なし

METAR: OICI 230900Z 28008KT CAVOK 32/06 Q1009 A2980

時間: 13:49 (09:19 UTC)

予報

当レポートは4時間9分前の05:10(UTC)に作成
予報は23日の 06時(UTC)から 24日の 12時(UTC)まで有効
西の風 8kt
視程: 8000m
23日の 10時(UTC)から 23日の 17時(UTC)まで一時的に
西の風 17kt
視程: 4000m

TAF: OICI 230510Z 2306/2412 28004MPS 8000 NSC TEMPO 2310/2317 26009MPS 4000 SA

4,000以上の空港の気象観測と天気予報(METAR報とTAF報)

利用可能な観測所は地図上に黄色い丸と赤い丸で示す。

丸の上にカーソルを重ねると観測所名を参照できる。

次にクリックすると気象観測と天気予報を参照できる。

マップの切り替え:黒色「×」印の緑ボタンをクリックして拡大、「-」印の緑ボタンをクリックして縮小、緑色の三角印をクリックして隣りの地図に切り替え


METAR-TAF: